sensor_id;sensor_type;location;lat;lon;timestamp;P1;durP1;ratioP1;P2;durP2;ratioP2
31974;SDS011;18500;43.618;1.474;2022-09-27T06:06:27;384.67;;;358.52;;
31974;SDS011;18500;43.618;1.474;2022-09-27T06:08:53;494.85;;;459.77;;
31974;SDS011;18500;43.618;1.474;2022-09-27T06:11:19;663.97;;;612.80;;
31974;SDS011;18500;43.618;1.474;2022-09-27T06:13:44;383.15;;;356.50;;
31974;SDS011;18500;43.618;1.474;2022-09-27T06:16:10;469.83;;;438.25;;
31974;SDS011;18500;43.618;1.474;2022-09-27T06:18:36;412.45;;;384.50;;
31974;SDS011;18500;43.618;1.474;2022-09-27T06:21:02;411.10;;;383.77;;
31974;SDS011;18500;43.618;1.474;2022-09-27T06:23:29;456.38;;;424.75;;
31974;SDS011;18500;43.618;1.474;2022-09-27T06:26:02;389.05;;;363.50;;
31974;SDS011;18500;43.618;1.474;2022-09-27T06:28:29;444.20;;;416.10;;
31974;SDS011;18500;43.618;1.474;2022-09-27T06:30:55;457.20;;;424.77;;
31974;SDS011;18500;43.618;1.474;2022-09-27T06:33:21;387.10;;;361.48;;
31974;SDS011;18500;43.618;1.474;2022-09-27T06:35:47;395.73;;;369.70;;
31974;SDS011;18500;43.618;1.474;2022-09-27T06:38:16;419.08;;;392.50;;
31974;SDS011;18500;43.618;1.474;2022-09-27T06:40:43;444.92;;;416.15;;
31974;SDS011;18500;43.618;1.474;2022-09-27T06:43:16;555.78;;;518.30;;
31974;SDS011;18500;43.618;1.474;2022-09-27T06:45:43;626.15;;;581.70;;
31974;SDS011;18500;43.618;1.474;2022-09-27T06:48:10;577.00;;;538.30;;
31974;SDS011;18500;43.618;1.474;2022-09-27T06:50:37;554.28;;;517.20;;
31974;SDS011;18500;43.618;1.474;2022-09-27T06:53:05;524.60;;;490.00;;
31974;SDS011;18500;43.618;1.474;2022-09-27T06:55:34;596.05;;;555.20;;
31974;SDS011;18500;43.618;1.474;2022-09-27T06:58:00;608.78;;;566.67;;
31974;SDS011;18500;43.618;1.474;2022-09-27T07:00:49;642.13;;;597.38;;
31974;SDS011;18500;43.618;1.474;2022-09-27T07:03:16;706.35;;;655.95;;
31974;SDS011;18500;43.618;1.474;2022-09-27T07:05:42;909.38;;;834.08;;
31974;SDS011;18500;43.618;1.474;2022-09-27T07:08:19;919.55;;;841.60;;
31974;SDS011;18500;43.618;1.474;2022-09-27T07:10:45;849.63;;;779.92;;
31974;SDS011;18500;43.618;1.474;2022-09-27T07:13:11;666.30;;;619.83;;
31974;SDS011;18500;43.618;1.474;2022-09-27T07:15:36;599.58;;;558.50;;
31974;SDS011;18500;43.618;1.474;2022-09-27T07:18:05;589.47;;;549.38;;
31974;SDS011;18500;43.618;1.474;2022-09-27T07:20:32;679.25;;;631.58;;
31974;SDS011;18500;43.618;1.474;2022-09-27T07:23:01;630.60;;;585.72;;
31974;SDS011;18500;43.618;1.474;2022-09-27T07:25:27;637.38;;;592.95;;
31974;SDS011;18500;43.618;1.474;2022-09-27T07:27:53;595.75;;;554.80;;
31974;SDS011;18500;43.618;1.474;2022-09-27T07:30:19;582.75;;;542.90;;
31974;SDS011;18500;43.618;1.474;2022-09-27T07:32:45;579.97;;;541.42;;
31974;SDS011;18500;43.618;1.474;2022-09-27T07:35:11;614.70;;;572.25;;
31974;SDS011;18500;43.618;1.474;2022-09-27T07:37:39;595.75;;;555.60;;
31974;SDS011;18500;43.618;1.474;2022-09-27T07:40:07;688.15;;;640.35;;
31974;SDS011;18500;43.618;1.474;2022-09-27T07:42:35;582.47;;;542.95;;
31974;SDS011;18500;43.618;1.474;2022-09-27T07:45:06;820.17;;;756.38;;
31974;SDS011;18500;43.618;1.474;2022-09-27T07:47:32;655.60;;;609.80;;
31974;SDS011;18500;43.618;1.474;2022-09-27T07:49:58;639.53;;;595.80;;
31974;SDS011;18500;43.618;1.474;2022-09-27T07:52:24;657.42;;;611.55;;
31974;SDS011;18500;43.618;1.474;2022-09-27T07:54:50;718.25;;;667.17;;
31974;SDS011;18500;43.618;1.474;2022-09-27T07:57:15;667.35;;;620.05;;
31974;SDS011;18500;43.618;1.474;2022-09-27T07:59:41;741.72;;;686.80;;
31974;SDS011;18500;43.618;1.474;2022-09-27T08:02:13;904.25;;;832.40;;
31974;SDS011;18500;43.618;1.474;2022-09-27T08:04:40;910.00;;;834.05;;
31974;SDS011;18500;43.618;1.474;2022-09-27T08:07:11;868.70;;;799.10;;
31974;SDS011;18500;43.618;1.474;2022-09-27T08:09:37;998.33;;;908.22;;
31974;SDS011;18500;43.618;1.474;2022-09-27T08:12:02;1014.13;;;923.60;;
31974;SDS011;18500;43.618;1.474;2022-09-27T08:14:29;990.92;;;901.92;;
31974;SDS011;18500;43.618;1.474;2022-09-27T08:16:55;984.85;;;896.45;;
31974;SDS011;18500;43.618;1.474;2022-09-27T08:19:21;1003.97;;;912.50;;
31974;SDS011;18500;43.618;1.474;2022-09-27T08:21:47;1083.00;;;981.45;;
31974;SDS011;18500;43.618;1.474;2022-09-27T08:24:15;1053.15;;;956.05;;
31974;SDS011;18500;43.618;1.474;2022-09-27T08:26:40;970.13;;;882.67;;
31974;SDS011;18500;43.618;1.474;2022-09-27T08:29:06;976.58;;;883.97;;
31974;SDS011;18500;43.618;1.474;2022-09-27T08:31:32;1036.20;;;938.60;;
31974;SDS011;18500;43.618;1.474;2022-09-27T08:33:57;1053.90;;;955.05;;
31974;SDS011;18500;43.618;1.474;2022-09-27T08:36:23;1032.85;;;933.05;;
31974;SDS011;18500;43.618;1.474;2022-09-27T08:38:52;995.80;;;902.00;;
31974;SDS011;18500;43.618;1.474;2022-09-27T08:49:20;1005.55;;;910.63;;
31974;SDS011;18500;43.618;1.474;2022-09-27T08:51:52;980.17;;;893.50;;
31974;SDS011;18500;43.618;1.474;2022-09-27T08:54:21;951.60;;;867.58;;
31974;SDS011;18500;43.618;1.474;2022-09-27T08:56:53;871.05;;;794.88;;
31974;SDS011;18500;43.618;1.474;2022-09-27T08:59:28;934.42;;;852.90;;
31974;SDS011;18500;43.618;1.474;2022-09-27T09:01:57;759.08;;;696.60;;
31974;SDS011;18500;43.618;1.474;2022-09-27T09:04:34;950.97;;;866.38;;
31974;SDS011;18500;43.618;1.474;2022-09-27T09:07:06;856.60;;;783.15;;
31974;SDS011;18500;43.618;1.474;2022-09-27T09:12:41;887.13;;;808.80;;
31974;SDS011;18500;43.618;1.474;2022-09-27T09:26:15;827.10;;;745.10;;
31974;SDS011;18500;43.618;1.474;2022-09-27T09:31:31;537.38;;;497.80;;
31974;SDS011;18500;43.618;1.474;2022-09-27T09:34:07;550.40;;;510.08;;
31974;SDS011;18500;43.618;1.474;2022-09-27T09:42:17;934.88;;;852.25;;
31974;SDS011;18500;43.618;1.474;2022-09-27T09:50:19;904.00;;;829.45;;
31974;SDS011;18500;43.618;1.474;2022-09-27T09:52:56;975.50;;;891.65;;
31974;SDS011;18500;43.618;1.474;2022-09-27T09:55:30;981.40;;;895.10;;
31974;SDS011;18500;43.618;1.474;2022-09-27T10:01:00;860.17;;;788.90;;
31974;SDS011;18500;43.618;1.474;2022-09-27T10:03:42;881.35;;;812.30;;
31974;SDS011;18500;43.618;1.474;2022-09-27T10:06:09;1028.85;;;928.58;;
31974;SDS011;18500;43.618;1.474;2022-09-27T10:08:36;1009.00;;;919.00;;
31974;SDS011;18500;43.618;1.474;2022-09-27T10:11:03;950.60;;;869.72;;
31974;SDS011;18500;43.618;1.474;2022-09-27T10:13:29;941.85;;;862.47;;
31974;SDS011;18500;43.618;1.474;2022-09-27T10:16:01;892.17;;;822.90;;
31974;SDS011;18500;43.618;1.474;2022-09-27T10:18:33;878.58;;;807.97;;
31974;SDS011;18500;43.618;1.474;2022-09-27T10:21:03;804.83;;;742.72;;
31974;SDS011;18500;43.618;1.474;2022-09-27T10:23:34;769.08;;;708.72;;
31974;SDS011;18500;43.618;1.474;2022-09-27T10:26:02;1007.92;;;910.75;;
31974;SDS011;18500;43.618;1.474;2022-09-27T10:31:08;954.70;;;869.80;;
31974;SDS011;18500;43.618;1.474;2022-09-27T10:36:31;1200.60;;;999.72;;
31974;SDS011;18500;43.618;1.474;2022-09-27T10:38:59;1059.43;;;950.40;;
31974;SDS011;18500;43.618;1.474;2022-09-27T10:46:47;1247.07;;;999.90;;
31974;SDS011;18500;43.618;1.474;2022-09-27T10:51:44;1272.78;;;999.90;;
31974;SDS011;18500;43.618;1.474;2022-09-27T10:54:32;1258.80;;;999.90;;
31974;SDS011;18500;43.618;1.474;2022-09-27T10:59:31;1232.60;;;999.90;;
31974;SDS011;18500;43.618;1.474;2022-09-27T11:02:00;1280.72;;;999.90;;
31974;SDS011;18500;43.618;1.474;2022-09-27T11:07:01;1241.03;;;999.90;;
31974;SDS011;18500;43.618;1.474;2022-09-27T11:09:45;1256.40;;;999.90;;
31974;SDS011;18500;43.618;1.474;2022-09-27T11:12:18;1749.85;;;999.90;;
31974;SDS011;18500;43.618;1.474;2022-09-27T11:14:56;1265.25;;;999.90;;
31974;SDS011;18500;43.618;1.474;2022-09-27T11:25:40;1537.82;;;999.90;;
31974;SDS011;18500;43.618;1.474;2022-09-27T11:28:14;1476.75;;;999.90;;
31974;SDS011;18500;43.618;1.474;2022-09-27T11:30:57;1470.32;;;999.90;;
31974;SDS011;18500;43.618;1.474;2022-09-27T11:36:32;1606.93;;;999.90;;
31974;SDS011;18500;43.618;1.474;2022-09-27T11:39:11;1555.20;;;999.90;;
31974;SDS011;18500;43.618;1.474;2022-09-27T11:50:47;1270.82;;;999.90;;
31974;SDS011;18500;43.618;1.474;2022-09-27T12:09:38;1845.95;;;999.90;;
31974;SDS011;18500;43.618;1.474;2022-09-27T12:12:11;1412.53;;;999.90;;
31974;SDS011;18500;43.618;1.474;2022-09-27T12:14:45;1789.03;;;999.90;;
31974;SDS011;18500;43.618;1.474;2022-09-27T12:17:15;1568.85;;;999.90;;
31974;SDS011;18500;43.618;1.474;2022-09-27T12:20:09;1545.97;;;999.90;;
31974;SDS011;18500;43.618;1.474;2022-09-27T12:22:57;1469.50;;;999.90;;
31974;SDS011;18500;43.618;1.474;2022-09-27T12:25:35;1300.03;;;999.90;;
31974;SDS011;18500;43.618;1.474;2022-09-27T12:31:05;978.13;;;890.88;;
31974;SDS011;18500;43.618;1.474;2022-09-27T12:36:43;940.13;;;855.45;;
31974;SDS011;18500;43.618;1.474;2022-09-27T12:39:20;1040.22;;;944.38;;
31974;SDS011;18500;43.618;1.474;2022-09-27T12:41:51;1053.90;;;952.80;;
31974;SDS011;18500;43.618;1.474;2022-09-27T12:44:26;1066.60;;;963.88;;
31974;SDS011;18500;43.618;1.474;2022-09-27T12:49:57;1015.42;;;920.22;;
31974;SDS011;18500;43.618;1.474;2022-09-27T12:52:30;1014.13;;;922.08;;
31974;SDS011;18500;43.618;1.474;2022-09-27T13:00:52;1053.82;;;951.78;;
31974;SDS011;18500;43.618;1.474;2022-09-27T13:06:28;1079.45;;;973.55;;
31974;SDS011;18500;43.618;1.474;2022-09-27T13:12:26;1069.90;;;963.80;;
31974;SDS011;18500;43.618;1.474;2022-09-27T13:15:35;1203.03;;;999.90;;
31974;SDS011;18500;43.618;1.474;2022-09-27T13:17:51;1200.50;;;999.90;;
31974;SDS011;18500;43.618;1.474;2022-09-27T13:23:00;1418.38;;;999.90;;
31974;SDS011;18500;43.618;1.474;2022-09-27T13:30:59;1335.63;;;999.90;;
31974;SDS011;18500;43.618;1.474;2022-09-27T13:46:48;1409.38;;;999.90;;
31974;SDS011;18500;43.618;1.474;2022-09-27T13:49:39;1252.00;;;999.90;;
31974;SDS011;18500;43.618;1.474;2022-09-27T13:54:57;1324.00;;;999.90;;
31974;SDS011;18500;43.618;1.474;2022-09-27T14:00:08;1358.40;;;999.90;;
31974;SDS011;18500;43.618;1.474;2022-09-27T14:02:57;1419.38;;;999.90;;
31974;SDS011;18500;43.618;1.474;2022-09-27T14:05:53;1416.65;;;999.90;;
31974;SDS011;18500;43.618;1.474;2022-09-27T14:08:29;1650.57;;;999.90;;
31974;SDS011;18500;43.618;1.474;2022-09-27T14:11:03;1173.00;;;999.90;;
31974;SDS011;18500;43.618;1.474;2022-09-27T14:13:35;1387.50;;;999.90;;
31974;SDS011;18500;43.618;1.474;2022-09-27T14:16:03;1087.90;;;975.08;;
31974;SDS011;18500;43.618;1.474;2022-09-27T14:18:31;1460.10;;;999.90;;
31974;SDS011;18500;43.618;1.474;2022-09-27T14:23:53;1206.28;;;999.90;;
31974;SDS011;18500;43.618;1.474;2022-09-27T14:26:39;1283.32;;;999.90;;
31974;SDS011;18500;43.618;1.474;2022-09-27T14:29:14;1090.10;;;978.10;;
31974;SDS011;18500;43.618;1.474;2022-09-27T14:31:44;1118.55;;;996.97;;
31974;SDS011;18500;43.618;1.474;2022-09-27T14:34:12;1057.35;;;949.92;;
31974;SDS011;18500;43.618;1.474;2022-09-27T14:36:37;1041.68;;;937.22;;
31974;SDS011;18500;43.618;1.474;2022-09-27T14:41:49;954.45;;;871.58;;
31974;SDS011;18500;43.618;1.474;2022-09-27T14:44:17;1022.97;;;930.78;;
31974;SDS011;18500;43.618;1.474;2022-09-27T14:46:44;1029.43;;;929.28;;
31974;SDS011;18500;43.618;1.474;2022-09-27T14:49:15;875.78;;;801.35;;
31974;SDS011;18500;43.618;1.474;2022-09-27T14:51:49;1074.13;;;966.90;;
31974;SDS011;18500;43.618;1.474;2022-09-27T14:54:22;1324.03;;;970.08;;
31974;SDS011;18500;43.618;1.474;2022-09-27T14:56:51;1147.57;;;994.35;;
31974;SDS011;18500;43.618;1.474;2022-09-27T14:59:21;1282.53;;;999.90;;
31974;SDS011;18500;43.618;1.474;2022-09-27T15:01:56;1043.75;;;934.80;;
31974;SDS011;18500;43.618;1.474;2022-09-27T15:04:27;954.20;;;870.80;;
31974;SDS011;18500;43.618;1.474;2022-09-27T15:06:56;761.00;;;700.33;;
31974;SDS011;18500;43.618;1.474;2022-09-27T15:09:22;732.63;;;672.92;;
31974;SDS011;18500;43.618;1.474;2022-09-27T15:11:56;566.10;;;523.20;;
31974;SDS011;18500;43.618;1.474;2022-09-27T15:14:25;619.00;;;570.88;;
31974;SDS011;18500;43.618;1.474;2022-09-27T15:16:53;541.47;;;499.85;;
31974;SDS011;18500;43.618;1.474;2022-09-27T15:19:23;455.50;;;422.92;;
31974;SDS011;18500;43.618;1.474;2022-09-27T15:21:53;657.63;;;607.08;;
31974;SDS011;18500;43.618;1.474;2022-09-27T15:24:37;450.55;;;418.98;;
31974;SDS011;18500;43.618;1.474;2022-09-27T15:27:17;543.00;;;504.05;;
31974;SDS011;18500;43.618;1.474;2022-09-27T15:29:53;492.33;;;457.70;;
31974;SDS011;18500;43.618;1.474;2022-09-27T15:32:29;822.42;;;750.35;;
31974;SDS011;18500;43.618;1.474;2022-09-27T15:34:55;858.78;;;784.40;;
31974;SDS011;18500;43.618;1.474;2022-09-27T15:37:32;548.75;;;510.70;;
31974;SDS011;18500;43.618;1.474;2022-09-27T15:42:57;984.95;;;895.65;;
31974;SDS011;18500;43.618;1.474;2022-09-27T15:45:28;1015.00;;;924.35;;
31974;SDS011;18500;43.618;1.474;2022-09-27T15:48:05;1095.85;;;985.97;;
31974;SDS011;18500;43.618;1.474;2022-09-27T15:50:38;1120.65;;;999.90;;
31974;SDS011;18500;43.618;1.474;2022-09-27T15:53:05;1122.20;;;989.35;;
31974;SDS011;18500;43.618;1.474;2022-09-27T15:55:33;1018.65;;;924.55;;
31974;SDS011;18500;43.618;1.474;2022-09-27T15:58:05;970.47;;;868.35;;
31974;SDS011;18500;43.618;1.474;2022-09-27T16:00:36;1051.35;;;938.47;;
31974;SDS011;18500;43.618;1.474;2022-09-27T16:03:02;1260.20;;;996.50;;
31974;SDS011;18500;43.618;1.474;2022-09-27T16:05:28;1099.97;;;988.25;;
31974;SDS011;18500;43.618;1.474;2022-09-27T16:07:54;967.70;;;879.05;;
31974;SDS011;18500;43.618;1.474;2022-09-27T16:10:23;1016.55;;;926.20;;
31974;SDS011;18500;43.618;1.474;2022-09-27T16:12:53;1029.85;;;934.80;;
31974;SDS011;18500;43.618;1.474;2022-09-27T16:15:19;1058.30;;;960.03;;
31974;SDS011;18500;43.618;1.474;2022-09-27T16:17:45;1024.80;;;928.20;;
31974;SDS011;18500;43.618;1.474;2022-09-27T16:20:14;964.42;;;880.95;;
31974;SDS011;18500;43.618;1.474;2022-09-27T16:22:43;1029.38;;;936.08;;
31974;SDS011;18500;43.618;1.474;2022-09-27T16:25:09;1070.20;;;969.13;;
31974;SDS011;18500;43.618;1.474;2022-09-27T16:27:36;1063.47;;;964.38;;
31974;SDS011;18500;43.618;1.474;2022-09-27T16:30:01;1047.63;;;952.13;;
31974;SDS011;18500;43.618;1.474;2022-09-27T16:32:27;1063.95;;;963.80;;
31974;SDS011;18500;43.618;1.474;2022-09-27T16:34:54;1071.63;;;965.30;;
31974;SDS011;18500;43.618;1.474;2022-09-27T16:37:20;1068.18;;;967.85;;
31974;SDS011;18500;43.618;1.474;2022-09-27T16:39:46;1051.82;;;947.17;;
31974;SDS011;18500;43.618;1.474;2022-09-27T16:42:12;738.67;;;682.20;;
31974;SDS011;18500;43.618;1.474;2022-09-27T16:44:38;561.55;;;521.45;;
31974;SDS011;18500;43.618;1.474;2022-09-27T16:47:04;444.23;;;413.02;;
31974;SDS011;18500;43.618;1.474;2022-09-27T16:49:31;402.35;;;374.10;;
31974;SDS011;18500;43.618;1.474;2022-09-27T16:52:16;596.95;;;548.17;;
31974;SDS011;18500;43.618;1.474;2022-09-27T16:54:42;519.67;;;478.42;;
31974;SDS011;18500;43.618;1.474;2022-09-27T16:57:08;534.78;;;494.48;;
31974;SDS011;18500;43.618;1.474;2022-09-27T16:59:34;437.30;;;405.80;;
31974;SDS011;18500;43.618;1.474;2022-09-27T17:02:00;543.72;;;496.95;;
31974;SDS011;18500;43.618;1.474;2022-09-27T17:04:29;431.02;;;398.65;;
31974;SDS011;18500;43.618;1.474;2022-09-27T17:06:55;239.93;;;223.88;;
31974;SDS011;18500;43.618;1.474;2022-09-27T17:09:21;277.08;;;258.40;;
31974;SDS011;18500;43.618;1.474;2022-09-27T17:11:47;214.68;;;199.98;;
31974;SDS011;18500;43.618;1.474;2022-09-27T17:14:14;456.83;;;426.55;;
31974;SDS011;18500;43.618;1.474;2022-09-27T17:16:44;294.15;;;275.05;;
31974;SDS011;18500;43.618;1.474;2022-09-27T17:19:11;401.83;;;374.35;;
31974;SDS011;18500;43.618;1.474;2022-09-27T17:21:38;381.30;;;356.60;;
31974;SDS011;18500;43.618;1.474;2022-09-27T17:24:06;732.40;;;669.70;;
31974;SDS011;18500;43.618;1.474;2022-09-27T17:26:32;498.48;;;463.75;;
31974;SDS011;18500;43.618;1.474;2022-09-27T17:28:58;470.02;;;430.70;;
31974;SDS011;18500;43.618;1.474;2022-09-27T17:31:28;682.47;;;623.38;;
31974;SDS011;18500;43.618;1.474;2022-09-27T17:33:55;726.95;;;656.65;;
31974;SDS011;18500;43.618;1.474;2022-09-27T17:36:23;704.42;;;647.85;;
31974;SDS011;18500;43.618;1.474;2022-09-27T17:38:50;556.28;;;512.20;;
31974;SDS011;18500;43.618;1.474;2022-09-27T17:41:18;742.17;;;679.58;;
31974;SDS011;18500;43.618;1.474;2022-09-27T17:43:45;483.95;;;451.35;;
31974;SDS011;18500;43.618;1.474;2022-09-27T17:46:14;510.75;;;474.05;;
31974;SDS011;18500;43.618;1.474;2022-09-27T17:48:45;519.83;;;483.15;;
31974;SDS011;18500;43.618;1.474;2022-09-27T17:51:30;518.42;;;476.02;;
31974;SDS011;18500;43.618;1.474;2022-09-27T17:53:57;674.25;;;614.40;;
31974;SDS011;18500;43.618;1.474;2022-09-27T17:56:22;722.75;;;666.13;;
31974;SDS011;18500;43.618;1.474;2022-09-27T17:58:49;800.80;;;726.83;;
31974;SDS011;18500;43.618;1.474;2022-09-27T18:01:16;476.65;;;444.73;;
31974;SDS011;18500;43.618;1.474;2022-09-27T18:03:43;313.42;;;292.98;;
31974;SDS011;18500;43.618;1.474;2022-09-27T18:06:10;459.85;;;425.90;;
31974;SDS011;18500;43.618;1.474;2022-09-27T18:08:37;332.15;;;310.65;;
31974;SDS011;18500;43.618;1.474;2022-09-27T18:11:07;286.65;;;268.33;;
31974;SDS011;18500;43.618;1.474;2022-09-27T18:13:37;446.52;;;414.60;;
31974;SDS011;18500;43.618;1.474;2022-09-27T18:16:10;371.60;;;346.63;;
31974;SDS011;18500;43.618;1.474;2022-09-27T18:18:41;377.55;;;352.50;;
31974;SDS011;18500;43.618;1.474;2022-09-27T18:21:12;431.20;;;402.50;;
31974;SDS011;18500;43.618;1.474;2022-09-27T18:23:40;1121.65;;;825.08;;
31974;SDS011;18500;43.618;1.474;2022-09-27T18:26:07;571.17;;;525.75;;
31974;SDS011;18500;43.618;1.474;2022-09-27T18:28:37;379.90;;;354.52;;
31974;SDS011;18500;43.618;1.474;2022-09-27T18:31:05;737.00;;;674.60;;
31974;SDS011;18500;43.618;1.474;2022-09-27T18:33:33;680.35;;;626.83;;
31974;SDS011;18500;43.618;1.474;2022-09-27T18:36:00;472.20;;;436.80;;
31974;SDS011;18500;43.618;1.474;2022-09-27T18:38:31;481.02;;;448.63;;
31974;SDS011;18500;43.618;1.474;2022-09-27T18:41:06;309.80;;;289.50;;
31974;SDS011;18500;43.618;1.474;2022-09-27T18:43:34;591.58;;;543.08;;
31974;SDS011;18500;43.618;1.474;2022-09-27T18:46:01;463.63;;;432.85;;
31974;SDS011;18500;43.618;1.474;2022-09-27T18:48:29;548.97;;;507.13;;
31974;SDS011;18500;43.618;1.474;2022-09-27T18:50:56;403.60;;;376.27;;
31974;SDS011;18500;43.618;1.474;2022-09-27T18:53:23;472.75;;;440.13;;
31974;SDS011;18500;43.618;1.474;2022-09-27T18:55:48;392.95;;;367.15;;
31974;SDS011;18500;43.618;1.474;2022-09-27T18:58:14;653.05;;;600.50;;
31974;SDS011;18500;43.618;1.474;2022-09-27T19:00:40;589.45;;;546.78;;
31974;SDS011;18500;43.618;1.474;2022-09-27T19:03:08;552.55;;;512.85;;
31974;SDS011;18500;43.618;1.474;2022-09-27T19:05:41;472.65;;;441.58;;
31974;SDS011;18500;43.618;1.474;2022-09-27T19:08:07;477.38;;;445.48;;
31974;SDS011;18500;43.618;1.474;2022-09-27T19:10:33;708.00;;;649.17;;
31974;SDS011;18500;43.618;1.474;2022-09-27T19:12:59;621.72;;;577.13;;
31974;SDS011;18500;43.618;1.474;2022-09-27T19:15:25;445.83;;;416.70;;
31974;SDS011;18500;43.618;1.474;2022-09-27T19:17:51;441.60;;;411.85;;
31974;SDS011;18500;43.618;1.474;2022-09-27T19:20:17;850.55;;;780.13;;
31974;SDS011;18500;43.618;1.474;2022-09-27T19:22:43;555.63;;;517.15;;
31974;SDS011;18500;43.618;1.474;2022-09-27T19:25:09;511.13;;;474.35;;
31974;SDS011;18500;43.618;1.474;2022-09-27T19:27:35;551.85;;;510.95;;
31974;SDS011;18500;43.618;1.474;2022-09-27T19:30:04;714.80;;;661.00;;
31974;SDS011;18500;43.618;1.474;2022-09-27T19:32:34;381.73;;;355.88;;
31974;SDS011;18500;43.618;1.474;2022-09-27T19:34:59;289.77;;;269.90;;
31974;SDS011;18500;43.618;1.474;2022-09-27T19:37:25;363.70;;;338.45;;
31974;SDS011;18500;43.618;1.474;2022-09-27T19:39:51;454.45;;;424.25;;
31974;SDS011;18500;43.618;1.474;2022-09-27T19:42:17;442.25;;;412.35;;
31974;SDS011;18500;43.618;1.474;2022-09-27T19:44:43;449.52;;;417.02;;
31974;SDS011;18500;43.618;1.474;2022-09-27T19:47:09;601.88;;;558.38;;
31974;SDS011;18500;43.618;1.474;2022-09-27T19:49:35;861.88;;;784.67;;
31974;SDS011;18500;43.618;1.474;2022-09-27T19:52:01;467.17;;;435.40;;
31974;SDS011;18500;43.618;1.474;2022-09-27T19:54:28;508.63;;;473.17;;
31974;SDS011;18500;43.618;1.474;2022-09-27T19:56:54;947.53;;;855.97;;
31974;SDS011;18500;43.618;1.474;2022-09-27T19:59:20;722.72;;;667.35;;
31974;SDS011;18500;43.618;1.474;2022-09-27T20:01:46;686.22;;;635.45;;
31974;SDS011;18500;43.618;1.474;2022-09-27T20:04:12;545.03;;;506.15;;
31974;SDS011;18500;43.618;1.474;2022-09-27T20:06:38;405.90;;;378.10;;
31974;SDS011;18500;43.618;1.474;2022-09-27T20:09:04;907.53;;;827.88;;
31974;SDS011;18500;43.618;1.474;2022-09-27T20:11:29;596.15;;;552.05;;
31974;SDS011;18500;43.618;1.474;2022-09-27T20:13:55;391.92;;;365.35;;
31974;SDS011;18500;43.618;1.474;2022-09-27T20:16:23;673.60;;;617.97;;
31974;SDS011;18500;43.618;1.474;2022-09-27T20:18:53;459.25;;;427.92;;
31974;SDS011;18500;43.618;1.474;2022-09-27T20:21:21;375.00;;;349.58;;
31974;SDS011;18500;43.618;1.474;2022-09-27T20:23:53;629.70;;;582.15;;
31974;SDS011;18500;43.618;1.474;2022-09-27T20:26:20;394.52;;;367.58;;
31974;SDS011;18500;43.618;1.474;2022-09-27T20:28:50;405.63;;;378.48;;
31974;SDS011;18500;43.618;1.474;2022-09-27T20:31:18;578.58;;;534.78;;
31974;SDS011;18500;43.618;1.474;2022-09-27T20:33:45;695.67;;;643.10;;
31974;SDS011;18500;43.618;1.474;2022-09-27T20:36:23;513.25;;;476.77;;
31974;SDS011;18500;43.618;1.474;2022-09-27T20:39:00;626.38;;;577.67;;
31974;SDS011;18500;43.618;1.474;2022-09-27T20:41:29;636.83;;;589.20;;
31974;SDS011;18500;43.618;1.474;2022-09-27T20:44:00;669.85;;;618.38;;
31974;SDS011;18500;43.618;1.474;2022-09-27T20:46:27;695.83;;;642.58;;
31974;SDS011;18500;43.618;1.474;2022-09-27T20:48:54;820.53;;;753.22;;
31974;SDS011;18500;43.618;1.474;2022-09-27T20:51:22;769.97;;;712.42;;
31974;SDS011;18500;43.618;1.474;2022-09-27T20:53:49;671.65;;;621.92;;
31974;SDS011;18500;43.618;1.474;2022-09-27T20:56:16;926.55;;;844.10;;
31974;SDS011;18500;43.618;1.474;2022-09-27T20:58:47;856.72;;;785.60;;
31974;SDS011;18500;43.618;1.474;2022-09-27T21:01:14;806.65;;;738.55;;
31974;SDS011;18500;43.618;1.474;2022-09-27T21:03:42;838.70;;;768.38;;
31974;SDS011;18500;43.618;1.474;2022-09-27T21:06:08;752.22;;;693.08;;
31974;SDS011;18500;43.618;1.474;2022-09-27T21:08:37;777.65;;;716.50;;
31974;SDS011;18500;43.618;1.474;2022-09-27T21:11:04;922.05;;;845.20;;
31974;SDS011;18500;43.618;1.474;2022-09-27T21:13:32;1005.72;;;908.58;;
31974;SDS011;18500;43.618;1.474;2022-09-27T21:15:59;947.55;;;862.97;;
31974;SDS011;18500;43.618;1.474;2022-09-27T21:18:25;968.03;;;878.80;;
31974;SDS011;18500;43.618;1.474;2022-09-27T21:21:07;893.13;;;818.15;;
31974;SDS011;18500;43.618;1.474;2022-09-27T21:23:34;836.38;;;769.42;;
31974;SDS011;18500;43.618;1.474;2022-09-27T21:26:11;1033.38;;;930.67;;
31974;SDS011;18500;43.618;1.474;2022-09-27T21:28:48;1035.70;;;932.42;;
31974;SDS011;18500;43.618;1.474;2022-09-27T21:31:16;995.05;;;902.13;;
31974;SDS011;18500;43.618;1.474;2022-09-27T21:34:02;960.47;;;873.65;;
31974;SDS011;18500;43.618;1.474;2022-09-27T21:36:30;909.42;;;831.85;;
31974;SDS011;18500;43.618;1.474;2022-09-27T21:38:57;984.47;;;897.13;;
